sensor_id;sensor_type;location;lat;lon;timestamp;pressure;altitude;pressure_sealevel;temperature;humidity
12949;BME280;6539;49.476;8.484;2023-02-18T00:01:33;101444.75;;;13.39;83.71
12949;BME280;6539;49.476;8.484;2023-02-18T00:03:59;101440.03;;;13.40;83.82
12949;BME280;6539;49.476;8.484;2023-02-18T00:06:34;101442.00;;;13.46;83.44
12949;BME280;6539;49.476;8.484;2023-02-18T00:09:08;101434.53;;;13.43;83.41
12949;BME280;6539;49.476;8.484;2023-02-18T00:11:37;101429.81;;;13.40;83.53
12949;BME280;6539;49.476;8.484;2023-02-18T00:14:06;101426.66;;;13.45;83.61
12949;BME280;6539;49.476;8.484;2023-02-18T00:16:35;101432.16;;;13.42;83.82
12949;BME280;6539;49.476;8.484;2023-02-18T00:19:05;101426.66;;;13.45;83.52
12949;BME280;6539;49.476;8.484;2023-02-18T00:21:34;101428.19;;;13.46;83.22
12949;BME280;6539;49.476;8.484;2023-02-18T00:24:00;101435.31;;;13.47;83.19
12949;BME280;6539;49.476;8.484;2023-02-18T00:26:26;101432.16;;;13.45;83.43
12949;BME280;6539;49.476;8.484;2023-02-18T00:28:57;101429.00;;;13.47;83.49
12949;BME280;6539;49.476;8.484;2023-02-18T00:31:33;101422.69;;;13.50;83.04
12949;BME280;6539;49.476;8.484;2023-02-18T00:33:59;101417.16;;;13.53;83.08
12949;BME280;6539;49.476;8.484;2023-02-18T00:36:31;101413.19;;;13.54;82.61
12949;BME280;6539;49.476;8.484;2023-02-18T00:39:00;101425.44;;;13.53;82.91
12949;BME280;6539;49.476;8.484;2023-02-18T00:41:29;101425.44;;;13.53;82.74
12949;BME280;6539;49.476;8.484;2023-02-18T00:43:56;101420.69;;;13.54;82.35
12949;BME280;6539;49.476;8.484;2023-02-18T00:46:23;101427.38;;;13.56;82.28
12949;BME280;6539;49.476;8.484;2023-02-18T00:48:48;101420.66;;;13.57;82.38
12949;BME280;6539;49.476;8.484;2023-02-18T00:51:14;101426.59;;;13.56;81.97
12949;BME280;6539;49.476;8.484;2023-02-18T00:53:40;101421.03;;;13.66;81.41
12949;BME280;6539;49.476;8.484;2023-02-18T00:56:08;101423.41;;;13.64;80.93
12949;BME280;6539;49.476;8.484;2023-02-18T00:58:35;101418.72;;;13.58;81.19
12949;BME280;6539;49.476;8.484;2023-02-18T01:01:06;101417.16;;;13.53;81.50
12949;BME280;6539;49.476;8.484;2023-02-18T01:03:35;101405.34;;;13.49;81.58
12949;BME280;6539;49.476;8.484;2023-02-18T01:06:02;101410.84;;;13.53;81.31
12949;BME280;6539;49.476;8.484;2023-02-18T01:08:30;101405.34;;;13.49;81.21
12949;BME280;6539;49.476;8.484;2023-02-18T01:10:57;101410.09;;;13.42;81.72
12949;BME280;6539;49.476;8.484;2023-02-18T01:13:27;101404.97;;;13.47;81.58
12949;BME280;6539;49.476;8.484;2023-02-18T01:15:56;101405.34;;;13.49;81.29
12949;BME280;6539;49.476;8.484;2023-02-18T01:18:25;101414.78;;;13.48;81.17
12949;BME280;6539;49.476;8.484;2023-02-18T01:20:53;101412.81;;;13.49;81.16
12949;BME280;6539;49.476;8.484;2023-02-18T01:23:19;101419.13;;;13.49;80.87
12949;BME280;6539;49.476;8.484;2023-02-18T01:25:46;101419.50;;;13.48;80.76
12949;BME280;6539;49.476;8.484;2023-02-18T01:28:15;101416.38;;;13.49;80.67
12949;BME280;6539;49.476;8.484;2023-02-18T01:30:41;101419.13;;;13.46;80.81
12949;BME280;6539;49.476;8.484;2023-02-18T01:33:10;101405.75;;;13.44;80.88
12949;BME280;6539;49.476;8.484;2023-02-18T01:35:39;101406.94;;;13.43;81.15
12949;BME280;6539;49.476;8.484;2023-02-18T01:38:08;101399.81;;;13.46;80.88
12949;BME280;6539;49.476;8.484;2023-02-18T01:40:47;101404.56;;;13.45;81.00
12949;BME280;6539;49.476;8.484;2023-02-18T01:43:18;101405.72;;;13.48;80.83
12949;BME280;6539;49.476;8.484;2023-02-18T01:45:59;101411.25;;;13.51;80.86
12949;BME280;6539;49.476;8.484;2023-02-18T01:54:13;101409.63;;;13.57;80.44
12949;BME280;6539;49.476;8.484;2023-02-18T01:56:48;101417.91;;;13.57;80.29
12949;BME280;6539;49.476;8.484;2023-02-18T01:59:29;101417.13;;;13.60;80.58
12949;BME280;6539;49.476;8.484;2023-02-18T02:01:59;101413.97;;;13.55;80.82
12949;BME280;6539;49.476;8.484;2023-02-18T02:04:25;101413.97;;;13.55;81.03
12949;BME280;6539;49.476;8.484;2023-02-18T02:06:53;101406.09;;;13.53;81.11
12949;BME280;6539;49.476;8.484;2023-02-18T02:09:25;101396.25;;;13.56;81.34
12949;BME280;6539;49.476;8.484;2023-02-18T02:15:06;101385.59;;;13.54;81.86
12949;BME280;6539;49.476;8.484;2023-02-18T02:17:45;101382.84;;;13.54;81.93
12949;BME280;6539;49.476;8.484;2023-02-18T02:24:11;101371.81;;;13.54;81.76
12949;BME280;6539;49.476;8.484;2023-02-18T02:27:28;101377.31;;;13.54;81.70
12949;BME280;6539;49.476;8.484;2023-02-18T02:39:50;101350.97;;;13.46;82.41
12949;BME280;6539;49.476;8.484;2023-02-18T02:48:30;101339.13;;;13.49;82.55
12949;BME280;6539;49.476;8.484;2023-02-18T02:51:20;101339.94;;;13.50;82.71
12949;BME280;6539;49.476;8.484;2023-02-18T02:53:49;101338.72;;;13.51;82.41
12949;BME280;6539;49.476;8.484;2023-02-18T02:56:22;101335.94;;;13.54;82.26
12949;BME280;6539;49.476;8.484;2023-02-18T02:59:00;101331.25;;;13.51;82.49
12949;BME280;6539;49.476;8.484;2023-02-18T03:13:47;101343.88;;;13.45;82.32
12949;BME280;6539;49.476;8.484;2023-02-18T03:22:22;101332.47;;;13.40;82.21
12949;BME280;6539;49.476;8.484;2023-02-18T03:24:55;101333.28;;;13.37;82.21
12949;BME280;6539;49.476;8.484;2023-02-18T03:27:41;101329.75;;;13.36;82.03
12949;BME280;6539;49.476;8.484;2023-02-18T03:30:21;101322.63;;;13.35;81.91
12949;BME280;6539;49.476;8.484;2023-02-18T03:32:58;101326.56;;;13.38;82.08
12949;BME280;6539;49.476;8.484;2023-02-18T03:35:26;101327.78;;;13.33;81.45
12949;BME280;6539;49.476;8.484;2023-02-18T03:38:12;101325.41;;;13.32;81.94
12949;BME280;6539;49.476;8.484;2023-02-18T03:40:46;101322.63;;;13.35;81.46
12949;BME280;6539;49.476;8.484;2023-02-18T03:43:12;101324.22;;;13.36;81.07
12949;BME280;6539;49.476;8.484;2023-02-18T03:45:40;101326.19;;;13.36;81.09
12949;BME280;6539;49.476;8.484;2023-02-18T03:48:08;101327.78;;;13.37;80.71
12949;BME280;6539;49.476;8.484;2023-02-18T03:50:34;101328.16;;;13.39;80.92
12949;BME280;6539;49.476;8.484;2023-02-18T03:53:00;101328.16;;;13.35;80.42
12949;BME280;6539;49.476;8.484;2023-02-18T03:55:26;101335.63;;;13.38;80.15
12949;BME280;6539;49.476;8.484;2023-02-18T03:57:51;101327.38;;;13.38;79.68
12949;BME280;6539;49.476;8.484;2023-02-18T04:00:20;101323.84;;;13.34;79.94
12949;BME280;6539;49.476;8.484;2023-02-18T04:02:46;101318.31;;;13.31;79.50
12949;BME280;6539;49.476;8.484;2023-02-18T04:05:14;101316.34;;;13.31;78.93
12949;BME280;6539;49.476;8.484;2023-02-18T04:07:40;101317.19;;;13.28;78.53
12949;BME280;6539;49.476;8.484;2023-02-18T04:10:06;101315.22;;;13.22;78.14
12949;BME280;6539;49.476;8.484;2023-02-18T04:12:36;101319.19;;;13.17;77.97
12949;BME280;6539;49.476;8.484;2023-02-18T04:15:04;101321.91;;;13.21;77.79
12949;BME280;6539;49.476;8.484;2023-02-18T04:17:34;101325.47;;;13.21;77.33
12949;BME280;6539;49.476;8.484;2023-02-18T04:19:59;101322.72;;;13.18;77.37
12949;BME280;6539;49.476;8.484;2023-02-18T04:22:28;101322.34;;;13.19;76.92
12949;BME280;6539;49.476;8.484;2023-02-18T04:24:53;101313.25;;;13.19;76.51
12949;BME280;6539;49.476;8.484;2023-02-18T04:27:21;101314.06;;;13.19;76.49
12949;BME280;6539;49.476;8.484;2023-02-18T04:29:50;101313.69;;;13.17;75.69
12949;BME280;6539;49.476;8.484;2023-02-18T04:32:15;101320.34;;;13.16;76.05
12949;BME280;6539;49.476;8.484;2023-02-18T04:34:46;101320.00;;;13.07;76.00
12949;BME280;6539;49.476;8.484;2023-02-18T04:37:14;101318.81;;;13.08;75.75
12949;BME280;6539;49.476;8.484;2023-02-18T04:39:40;101315.28;;;13.08;75.76
12949;BME280;6539;49.476;8.484;2023-02-18T04:42:08;101314.88;;;13.06;75.57
12949;BME280;6539;49.476;8.484;2023-02-18T04:44:37;101313.31;;;13.08;75.43
12949;BME280;6539;49.476;8.484;2023-02-18T04:47:05;101310.56;;;13.08;74.83
12949;BME280;6539;49.476;8.484;2023-02-18T04:49:33;101312.88;;;13.02;74.88
12949;BME280;6539;49.476;8.484;2023-02-18T04:51:59;101306.22;;;13.07;74.43
12949;BME280;6539;49.476;8.484;2023-02-18T04:54:25;101313.31;;;13.08;74.42
12949;BME280;6539;49.476;8.484;2023-02-18T04:56:53;101312.50;;;13.11;73.85
12949;BME280;6539;49.476;8.484;2023-02-18T04:59:19;101309.34;;;13.09;73.59
12949;BME280;6539;49.476;8.484;2023-02-18T05:01:45;101304.66;;;13.06;73.63
12949;BME280;6539;49.476;8.484;2023-02-18T05:04:11;101301.09;;;13.09;73.32
12949;BME280;6539;49.476;8.484;2023-02-18T05:06:39;101298.31;;;13.09;73.50
12949;BME280;6539;49.476;8.484;2023-02-18T05:09:08;101299.53;;;13.08;73.44
12949;BME280;6539;49.476;8.484;2023-02-18T05:11:33;101314.88;;;13.02;73.80
12949;BME280;6539;49.476;8.484;2023-02-18T05:13:59;101319.19;;;13.03;73.53
12949;BME280;6539;49.476;8.484;2023-02-18T05:16:25;101310.94;;;12.96;74.13
12949;BME280;6539;49.476;8.484;2023-02-18T05:18:51;101320.78;;;13.00;73.69
12949;BME280;6539;49.476;8.484;2023-02-18T05:21:17;101312.88;;;13.02;73.52
12949;BME280;6539;49.476;8.484;2023-02-18T05:23:45;101325.13;;;12.98;73.28
12949;BME280;6539;49.476;8.484;2023-02-18T05:26:12;101310.56;;;12.97;73.33
12949;BME280;6539;49.476;8.484;2023-02-18T05:28:41;101321.97;;;12.99;72.75
12949;BME280;6539;49.476;8.484;2023-02-18T05:31:06;101318.84;;;13.05;72.28
12949;BME280;6539;49.476;8.484;2023-02-18T05:33:32;101318.81;;;13.08;71.96
12949;BME280;6539;49.476;8.484;2023-02-18T05:36:00;101320.75;;;13.11;72.15
12949;BME280;6539;49.476;8.484;2023-02-18T05:38:31;101316.06;;;13.08;72.20
12949;BME280;6539;49.476;8.484;2023-02-18T05:41:01;101323.13;;;13.09;72.19
12949;BME280;6539;49.476;8.484;2023-02-18T05:43:27;101316.06;;;13.15;72.40
12949;BME280;6539;49.476;8.484;2023-02-18T05:45:55;101316.44;;;13.17;72.21
12949;BME280;6539;49.476;8.484;2023-02-18T05:48:21;101317.25;;;13.11;72.37
12949;BME280;6539;49.476;8.484;2023-02-18T05:50:46;101315.25;;;13.11;72.53
12949;BME280;6539;49.476;8.484;2023-02-18T05:53:12;101325.88;;;13.16;72.51
12949;BME280;6539;49.476;8.484;2023-02-18T05:55:38;101321.94;;;13.14;72.28
12949;BME280;6539;49.476;8.484;2023-02-18T05:58:06;101318.00;;;13.11;72.28
12949;BME280;6539;49.476;8.484;2023-02-18T06:00:34;101329.03;;;13.15;72.28
12949;BME280;6539;49.476;8.484;2023-02-18T06:03:00;101324.69;;;13.17;72.41
12949;BME280;6539;49.476;8.484;2023-02-18T06:05:28;101323.50;;;13.18;72.56
12949;BME280;6539;49.476;8.484;2023-02-18T06:07:56;101325.84;;;13.23;72.67
12949;BME280;6539;49.476;8.484;2023-02-18T06:10:22;101319.13;;;13.28;72.61
12949;BME280;6539;49.476;8.484;2023-02-18T06:12:48;101311.63;;;13.32;72.18
12949;BME280;6539;49.476;8.484;2023-02-18T06:15:13;101289.97;;;13.27;72.47
12949;BME280;6539;49.476;8.484;2023-02-18T06:17:41;101299.03;;;13.27;72.64
12949;BME280;6539;49.476;8.484;2023-02-18T06:20:07;101302.97;;;13.30;72.53
12949;BME280;6539;49.476;8.484;2023-02-18T06:22:33;101306.91;;;13.29;72.58
12949;BME280;6539;49.476;8.484;2023-02-18T06:25:02;101302.22;;;13.22;72.77
12949;BME280;6539;49.476;8.484;2023-02-18T06:27:27;101307.34;;;13.20;72.60
12949;BME280;6539;49.476;8.484;2023-02-18T06:29:53;101301.44;;;13.18;72.37
12949;BME280;6539;49.476;8.484;2023-02-18T06:32:21;101307.72;;;13.22;72.30
12949;BME280;6539;49.476;8.484;2023-02-18T06:34:47;101299.03;;;13.27;71.88
12949;BME280;6539;49.476;8.484;2023-02-18T06:37:12;101293.53;;;13.27;71.37
12949;BME280;6539;49.476;8.484;2023-02-18T06:39:38;101289.19;;;13.26;71.10
12949;BME280;6539;49.476;8.484;2023-02-18T06:42:06;101296.63;;;13.33;70.71
12949;BME280;6539;49.476;8.484;2023-02-18T06:44:32;101290.75;;;13.34;70.55
12949;BME280;6539;49.476;8.484;2023-02-18T06:46:58;101288.78;;;13.31;71.05
12949;BME280;6539;49.476;8.484;2023-02-18T06:49:27;101284.84;;;13.32;70.85
12949;BME280;6539;49.476;8.484;2023-02-18T06:51:52;101280.88;;;13.33;71.01
12949;BME280;6539;49.476;8.484;2023-02-18T06:54:23;101282.84;;;13.36;70.76
12949;BME280;6539;49.476;8.484;2023-02-18T06:56:49;101280.09;;;13.36;70.66
12949;BME280;6539;49.476;8.484;2023-02-18T06:59:15;101271.44;;;13.34;70.89
12949;BME280;6539;49.476;8.484;2023-02-18T07:01:41;101275.38;;;13.33;71.03
12949;BME280;6539;49.476;8.484;2023-02-18T07:04:07;101278.16;;;13.30;71.05
12949;BME280;6539;49.476;8.484;2023-02-18T07:06:33;101276.91;;;13.38;71.27
12949;BME280;6539;49.476;8.484;2023-02-18T07:08:59;101276.88;;;13.41;71.06
12949;BME280;6539;49.476;8.484;2023-02-18T07:11:29;101285.16;;;13.45;71.03
12949;BME280;6539;49.476;8.484;2023-02-18T07:13:55;101281.59;;;13.48;70.71
12949;BME280;6539;49.476;8.484;2023-02-18T07:16:23;101280.38;;;13.52;70.77
12949;BME280;6539;49.476;8.484;2023-02-18T07:18:51;101278.38;;;13.56;70.36
12949;BME280;6539;49.476;8.484;2023-02-18T07:21:21;101283.91;;;13.56;70.55
12949;BME280;6539;49.476;8.484;2023-02-18T07:23:47;101277.19;;;13.57;70.71
12949;BME280;6539;49.476;8.484;2023-02-18T07:26:13;101272.81;;;13.63;70.76
12949;BME280;6539;49.476;8.484;2023-02-18T07:28:40;101271.59;;;13.68;70.90
12949;BME280;6539;49.476;8.484;2023-02-18T07:31:07;101268.44;;;13.69;71.19
12949;BME280;6539;49.476;8.484;2023-02-18T07:33:35;101262.91;;;13.69;71.30
12949;BME280;6539;49.476;8.484;2023-02-18T07:36:02;101265.69;;;13.69;71.96
12949;BME280;6539;49.476;8.484;2023-02-18T07:38:28;101260.56;;;13.68;72.65
12949;BME280;6539;49.476;8.484;2023-02-18T07:40:54;101259.78;;;13.71;72.72
12949;BME280;6539;49.476;8.484;2023-02-18T07:43:21;101252.66;;;13.73;73.51
12949;BME280;6539;49.476;8.484;2023-02-18T07:45:47;101251.06;;;13.72;73.99
12949;BME280;6539;49.476;8.484;2023-02-18T07:48:15;101262.88;;;13.76;73.81
12949;BME280;6539;49.476;8.484;2023-02-18T07:50:44;101261.75;;;13.70;74.22
12949;BME280;6539;49.476;8.484;2023-02-18T07:53:15;101264.50;;;13.70;74.78
12949;BME280;6539;49.476;8.484;2023-02-18T07:55:41;101247.19;;;13.66;74.92
12949;BME280;6539;49.476;8.484;2023-02-18T07:58:25;101257.78;;;13.71;75.63
12949;BME280;6539;49.476;8.484;2023-02-18T08:00:51;101262.16;;;13.69;75.50
12949;BME280;6539;49.476;8.484;2023-02-18T08:03:24;101264.09;;;13.75;75.40
12949;BME280;6539;49.476;8.484;2023-02-18T08:05:55;101270.72;;;13.82;75.35
12949;BME280;6539;49.476;8.484;2023-02-18T08:08:27;101269.13;;;13.84;75.19
12949;BME280;6539;49.476;8.484;2023-02-18T08:10:59;101263.25;;;13.82;75.38
12949;BME280;6539;49.476;8.484;2023-02-18T08:13:32;101260.88;;;13.81;75.28
12949;BME280;6539;49.476;8.484;2023-02-18T08:16:03;101245.88;;;13.82;75.37
12949;BME280;6539;49.476;8.484;2023-02-18T08:18:31;101249.81;;;13.81;75.35
12949;BME280;6539;49.476;8.484;2023-02-18T08:21:02;101260.13;;;13.76;75.76
12949;BME280;6539;49.476;8.484;2023-02-18T08:23:30;101253.84;;;13.72;75.68
12949;BME280;6539;49.476;8.484;2023-02-18T08:25:57;101254.22;;;13.74;73.94
12949;BME280;6539;49.476;8.484;2023-02-18T08:28:28;101259.72;;;13.74;73.91
12949;BME280;6539;49.476;8.484;2023-02-18T08:30:58;101251.47;;;13.74;74.69
12949;BME280;6539;49.476;8.484;2023-02-18T08:33:26;101255.38;;;13.77;74.51
12949;BME280;6539;49.476;8.484;2023-02-18T08:35:55;101243.59;;;13.73;74.67
12949;BME280;6539;49.476;8.484;2023-02-18T08:38:24;101243.09;;;13.85;73.91
12949;BME280;6539;49.476;8.484;2023-02-18T08:41:02;101237.47;;;13.96;71.91
12949;BME280;6539;49.476;8.484;2023-02-18T08:43:31;101229.94;;;14.03;71.00
12949;BME280;6539;49.476;8.484;2023-02-18T08:45:58;101232.16;;;14.19;70.31
12949;BME280;6539;49.476;8.484;2023-02-18T08:48:25;101234.06;;;14.29;70.74
12949;BME280;6539;49.476;8.484;2023-02-18T08:50:51;101228.91;;;14.27;71.48
12949;BME280;6539;49.476;8.484;2023-02-18T08:53:20;101224.19;;;14.24;70.93
12949;BME280;6539;49.476;8.484;2023-02-18T08:55:46;101227.44;;;14.16;70.26
12949;BME280;6539;49.476;8.484;2023-02-18T08:58:22;101216.41;;;14.16;70.30
12949;BME280;6539;49.476;8.484;2023-02-18T09:00:50;101222.72;;;14.16;70.44
12949;BME280;6539;49.476;8.484;2023-02-18T09:03:18;101221.13;;;14.19;70.03
12949;BME280;6539;49.476;8.484;2023-02-18T09:05:46;101224.56;;;14.26;69.74
12949;BME280;6539;49.476;8.484;2023-02-18T09:08:11;101233.63;;;14.30;69.77
12949;BME280;6539;49.476;8.484;2023-02-18T09:10:39;101236.00;;;14.28;69.51
12949;BME280;6539;49.476;8.484;2023-02-18T09:13:05;101241.59;;;14.21;69.83
12949;BME280;6539;49.476;8.484;2023-02-18T09:15:31;101239.59;;;14.22;69.44
12949;BME280;6539;49.476;8.484;2023-02-18T09:17:59;101239.97;;;14.24;69.49
12949;BME280;6539;49.476;8.484;2023-02-18T09:20:26;101239.19;;;14.27;69.47
12949;BME280;6539;49.476;8.484;2023-02-18T09:22:52;101248.25;;;14.31;68.88
12949;BME280;6539;49.476;8.484;2023-02-18T09:25:17;101249.41;;;14.30;68.54
12949;BME280;6539;49.476;8.484;2023-02-18T09:27:43;101260.47;;;14.26;68.46
12949;BME280;6539;49.476;8.484;2023-02-18T09:30:12;101249.44;;;14.26;68.59
12949;BME280;6539;49.476;8.484;2023-02-18T09:32:40;101247.81;;;14.32;68.66
12949;BME280;6539;49.476;8.484;2023-02-18T09:35:11;101247.38;;;14.37;68.01
12949;BME280;6539;49.476;8.484;2023-02-18T09:37:37;101253.66;;;14.41;68.09
12949;BME280;6539;49.476;8.484;2023-02-18T09:40:05;101248.44;;;14.47;67.47
12949;BME280;6539;49.476;8.484;2023-02-18T09:42:37;101239.34;;;14.50;67.76
12949;BME280;6539;49.476;8.484;2023-02-18T09:45:10;101243.72;;;14.47;67.47
12949;BME280;6539;49.476;8.484;2023-02-18T09:47:41;101250.00;;;14.51;67.49
12949;BME280;6539;49.476;8.484;2023-02-18T09:50:21;101251.56;;;14.52;67.29
12949;BME280;6539;49.476;8.484;2023-02-18T09:52:52;101241.63;;;14.59;66.86
12949;BME280;6539;49.476;8.484;2023-02-18T09:57:50;101238.44;;;14.60;67.07
12949;BME280;6539;49.476;8.484;2023-02-18T10:00:29;101256.56;;;14.65;67.12
12949;BME280;6539;49.476;8.484;2023-02-18T10:03:19;101250.63;;;14.66;66.56
12949;BME280;6539;49.476;8.484;2023-02-18T10:06:10;101254.50;;;14.72;65.95
12949;BME280;6539;49.476;8.484;2023-02-18T10:08:45;101243.16;;;14.63;65.92
12949;BME280;6539;49.476;8.484;2023-02-18T10:11:31;101254.63;;;14.62;66.19
12949;BME280;6539;49.476;8.484;2023-02-18T10:14:00;101245.50;;;14.65;66.26
12949;BME280;6539;49.476;8.484;2023-02-18T10:16:28;101259.06;;;14.56;65.85
12949;BME280;6539;49.476;8.484;2023-02-18T10:18:58;101250.00;;;14.51;65.85
12949;BME280;6539;49.476;8.484;2023-02-18T10:21:32;101254.78;;;14.47;65.85
12949;BME280;6539;49.476;8.484;2023-02-18T10:24:18;101251.75;;;14.35;66.02
12949;BME280;6539;49.476;8.484;2023-02-18T10:26:47;101254.88;;;14.37;66.05
12949;BME280;6539;49.476;8.484;2023-02-18T10:29:17;101252.84;;;14.41;66.12
12949;BME280;6539;49.476;8.484;2023-02-18T10:32:29;101248.56;;;14.36;66.17
12949;BME280;6539;49.476;8.484;2023-02-18T10:41:25;101255.66;;;14.37;66.50
12949;BME280;6539;49.476;8.484;2023-02-18T10:47:28;101266.78;;;14.34;66.36
12949;BME280;6539;49.476;8.484;2023-02-18T10:52:55;101263.16;;;14.40;66.56
12949;BME280;6539;49.476;8.484;2023-02-18T10:55:40;101258.75;;;14.43;65.98
12949;BME280;6539;49.476;8.484;2023-02-18T11:00:50;101273.03;;;14.38;65.33
12949;BME280;6539;49.476;8.484;2023-02-18T11:03:23;101270.72;;;14.33;65.60
12949;BME280;6539;49.476;8.484;2023-02-18T11:05:56;101266.38;;;14.32;65.72
12949;BME280;6539;49.476;8.484;2023-02-18T11:08:29;101264.81;;;14.31;65.46
12949;BME280;6539;49.476;8.484;2023-02-18T11:11:23;101271.50;;;14.30;65.40
12949;BME280;6539;49.476;8.484;2023-02-18T11:13:56;101261.25;;;14.30;64.93
12949;BME280;6539;49.476;8.484;2023-02-18T11:16:34;101266.00;;;14.30;64.96
12949;BME280;6539;49.476;8.484;2023-02-18T11:19:00;101266.78;;;14.27;64.53
12949;BME280;6539;49.476;8.484;2023-02-18T11:21:35;101268.81;;;14.23;64.13
12949;BME280;6539;49.476;8.484;2023-02-18T11:24:20;101254.25;;;14.19;64.34
12949;BME280;6539;49.476;8.484;2023-02-18T11:26:48;101264.56;;;14.11;64.14
12949;BME280;6539;49.476;8.484;2023-02-18T11:29:21;101254.31;;;14.08;64.09
12949;BME280;6539;49.476;8.484;2023-02-18T11:31:52;101250.44;;;14.06;64.13
12949;BME280;6539;49.476;8.484;2023-02-18T11:34:25;101249.22;;;14.07;64.11
12949;BME280;6539;49.476;8.484;2023-02-18T11:36:55;101239.72;;;14.11;63.57
12949;BME280;6539;49.476;8.484;2023-02-18T11:39:33;101244.81;;;14.16;63.31
12949;BME280;6539;49.476;8.484;2023-02-18T11:42:05;101242.44;;;14.15;63.07
12949;BME280;6539;49.476;8.484;2023-02-18T11:49:42;101228.09;;;14.34;62.58
12949;BME280;6539;49.476;8.484;2023-02-18T11:52:24;101230.44;;;14.32;62.40
12949;BME280;6539;49.476;8.484;2023-02-18T11:57:45;101221.78;;;14.30;62.01
12949;BME280;6539;49.476;8.484;2023-02-18T12:00:44;101219.03;;;14.30;61.83
12949;BME280;6539;49.476;8.484;2023-02-18T12:03:35;101215.50;;;14.26;61.51
12949;BME280;6539;49.476;8.484;2023-02-18T12:06:17;101208.81;;;14.23;61.61
12949;BME280;6539;49.476;8.484;2023-02-18T12:08:56;101210.75;;;14.26;61.17
12949;BME280;6539;49.476;8.484;2023-02-18T12:11:37;101200.47;;;14.34;60.91
12949;BME280;6539;49.476;8.484;2023-02-18T12:14:17;101195.56;;;14.48;60.74
12949;BME280;6539;49.476;8.484;2023-02-18T12:38:33;101174.50;;;14.58;58.65
12949;BME280;6539;49.476;8.484;2023-02-18T12:47:19;101163.16;;;14.83;57.30
12949;BME280;6539;49.476;8.484;2023-02-18T12:58:55;101154.50;;;14.81;56.44
12949;BME280;6539;49.476;8.484;2023-02-18T13:04:38;101134.53;;;14.96;56.50
12949;BME280;6539;49.476;8.484;2023-02-18T13:10:35;101134.78;;;15.05;56.79
12949;BME280;6539;49.476;8.484;2023-02-18T13:13:21;101128.41;;;15.08;56.56
12949;BME280;6539;49.476;8.484;2023-02-18T13:16:03;101128.69;;;15.17;56.39
12949;BME280;6539;49.476;8.484;2023-02-18T13:21:07;101116.41;;;15.18;55.44
12949;BME280;6539;49.476;8.484;2023-02-18T13:23:41;101113.28;;;15.16;55.44
12949;BME280;6539;49.476;8.484;2023-02-18T13:26:15;101105.47;;;15.11;55.15
12949;BME280;6539;49.476;8.484;2023-02-18T13:32:08;101091.28;;;15.09;55.14
12949;BME280;6539;49.476;8.484;2023-02-18T13:40:34;101086.41;;;15.17;55.14
12949;BME280;6539;49.476;8.484;2023-02-18T13:48:43;101060.13;;;15.28;54.08
12949;BME280;6539;49.476;8.484;2023-02-18T13:51:14;101070.72;;;15.34;54.01
12949;BME280;6539;49.476;8.484;2023-02-18T13:53:43;101073.34;;;15.41;53.96
12949;BME280;6539;49.476;8.484;2023-02-18T13:56:30;101071.06;;;15.36;53.92
12949;BME280;6539;49.476;8.484;2023-02-18T13:59:48;101063.19;;;15.34;53.76
12949;BME280;6539;49.476;8.484;2023-02-18T14:04:56;101074.38;;;15.27;53.68
12949;BME280;6539;49.476;8.484;2023-02-18T14:39:06;101100.03;;;15.04;54.84
12949;BME280;6539;49.476;8.484;2023-02-18T14:49:59;101091.94;;;14.90;55.26
12949;BME280;6539;49.476;8.484;2023-02-18T14:52:36;101098.63;;;14.93;55.15
12949;BME280;6539;49.476;8.484;2023-02-18T14:55:07;101101.81;;;14.91;55.10
12949;BME280;6539;49.476;8.484;2023-02-18T14:57:48;101099.41;;;14.93;55.23
12949;BME280;6539;49.476;8.484;2023-02-18T15:00:29;101101.44;;;14.89;55.22
12949;BME280;6539;49.476;8.484;2023-02-18T15:03:01;101113.31;;;14.86;55.26
12949;BME280;6539;49.476;8.484;2023-02-18T15:05:31;101107.13;;;14.79;55.74
12949;BME280;6539;49.476;8.484;2023-02-18T15:08:05;101102.69;;;14.85;55.60
12949;BME280;6539;49.476;8.484;2023-02-18T15:10:47;101099.84;;;14.92;55.61
12949;BME280;6539;49.476;8.484;2023-02-18T15:13:41;101101.09;;;14.87;55.80
12949;BME280;6539;49.476;8.484;2023-02-18T15:16:30;101118.50;;;14.84;55.99
12949;BME280;6539;49.476;8.484;2023-02-18T15:19:01;101119.81;;;14.76;56.01
12949;BME280;6539;49.476;8.484;2023-02-18T15:21:45;101126.22;;;14.70;56.26
12949;BME280;6539;49.476;8.484;2023-02-18T15:24:32;101120.31;;;14.68;56.50
12949;BME280;6539;49.476;8.484;2023-02-18T15:27:11;101122.00;;;14.58;56.87
12949;BME280;6539;49.476;8.484;2023-02-18T15:29:39;101133.91;;;14.55;57.28
12949;BME280;6539;49.476;8.484;2023-02-18T15:32:25;101137.47;;;14.52;57.39
12949;BME280;6539;49.476;8.484;2023-02-18T15:35:01;101136.81;;;14.44;57.76
12949;BME280;6539;49.476;8.484;2023-02-18T15:37:28;101128.91;;;14.43;58.02
12949;BME280;6539;49.476;8.484;2023-02-18T15:39:54;101140.38;;;14.41;57.96
12949;BME280;6539;49.476;8.484;2023-02-18T15:45:19;101135.88;;;14.21;58.59
12949;BME280;6539;49.476;8.484;2023-02-18T15:47:53;101136.25;;;14.23;58.77
12949;BME280;6539;49.476;8.484;2023-02-18T15:50:33;101137.41;;;14.25;58.61
12949;BME280;6539;49.476;8.484;2023-02-18T15:53:13;101143.00;;;14.15;58.78
12949;BME280;6539;49.476;8.484;2023-02-18T15:55:46;101131.59;;;14.16;58.93
12949;BME280;6539;49.476;8.484;2023-02-18T15:58:30;101141.09;;;14.12;59.13
12949;BME280;6539;49.476;8.484;2023-02-18T16:01:01;101133.25;;;14.07;59.33
12949;BME280;6539;49.476;8.484;2023-02-18T16:03:29;101140.72;;;14.10;59.28
12949;BME280;6539;49.476;8.484;2023-02-18T16:06:33;101146.31;;;14.03;59.51
12949;BME280;6539;49.476;8.484;2023-02-18T16:09:12;101146.38;;;13.96;59.71
12949;BME280;6539;49.476;8.484;2023-02-18T16:11:46;101142.44;;;13.97;59.85
12949;BME280;6539;49.476;8.484;2023-02-18T16:14:44;101142.44;;;13.93;59.92
12949;BME280;6539;49.476;8.484;2023-02-18T16:25:07;101150.47;;;13.84;60.40
12949;BME280;6539;49.476;8.484;2023-02-18T16:27:45;101154.75;;;13.85;60.28
12949;BME280;6539;49.476;8.484;2023-02-18T16:30:27;101158.31;;;13.86;60.58